Time;durP1;ratioP1;P1;durP2;ratioP2;P2;SDS_P1;SDS_P2;PMS_P1;PMS_P2;Temp;Humidity;BMP_temperature;BMP_pressure;BME280_temperature;BME280_humidity;BME280_pressure;Samples;Min_cycle;Max_cycle;Signal;HPM_P1;HPM_P2
2022/10/29 00:00:27;;;;;;;10.75;5.57;;;17.00;96.70;;;;;;4931479;29;20055;-71
2022/10/29 00:02:55;;;;;;;10.10;5.75;;;16.90;96.70;;;;;;4941204;28;20094;-72
2022/10/29 00:05:23;;;;;;;11.27;5.90;;;16.90;96.70;;;;;;4926529;28;20051;-72
2022/10/29 00:07:53;;;;;;;10.30;5.78;;;16.90;96.70;;;;;;4945925;28;20047;-72
2022/10/29 00:10:21;;;;;;;10.85;5.95;;;16.90;96.70;;;;;;4957631;28;20051;-72
2022/10/29 00:12:49;;;;;;;13.15;6.07;;;16.90;96.70;;;;;;4941403;29;20134;-72
2022/10/29 00:15:17;;;;;;;11.70;6.93;;;16.90;96.70;;;;;;4959793;28;20051;-71
2022/10/29 00:17:45;;;;;;;10.00;6.40;;;16.90;96.70;;;;;;4967287;28;20708;-70
2022/10/29 00:20:13;;;;;;;11.63;6.38;;;17.00;96.70;;;;;;4949642;28;20054;-70
2022/10/29 00:22:40;;;;;;;12.10;6.10;;;17.00;96.70;;;;;;4958838;28;20047;-69
2022/10/29 00:25:10;;;;;;;9.73;6.65;;;16.80;96.70;;;;;;4937647;28;20658;-70
2022/10/29 00:27:38;;;;;;;12.57;7.30;;;16.70;96.70;;;;;;4955654;28;20040;-69
2022/10/29 00:30:07;;;;;;;14.55;7.13;;;16.70;96.70;;;;;;4945257;28;20058;-70
2022/10/29 00:32:34;;;;;;;12.85;6.75;;;16.70;96.70;;;;;;4942253;28;20040;-70
2022/10/29 00:35:02;;;;;;;12.60;6.80;;;16.70;96.70;;;;;;4970680;28;20505;-69
2022/10/29 00:37:30;;;;;;;12.80;6.80;;;16.70;96.70;;;;;;4956908;28;20045;-71
2022/10/29 00:39:58;;;;;;;11.85;6.40;;;16.60;96.70;;;;;;4955385;28;20505;-70
2022/10/29 00:42:27;;;;;;;14.60;6.25;;;16.60;96.70;;;;;;4950961;28;20035;-70
2022/10/29 00:44:55;;;;;;;13.93;6.95;;;16.50;96.70;;;;;;4948367;28;20049;-70
2022/10/29 00:47:27;;;;;;;12.55;6.50;;;16.40;96.70;;;;;;4948584;28;20051;-70
2022/10/29 00:49:59;;;;;;;10.93;6.97;;;16.40;96.70;;;;;;4962800;28;20125;-71
2022/10/29 00:52:31;;;;;;;11.00;7.22;;;16.40;96.70;;;;;;4941609;28;20142;-70
2022/10/29 00:55:01;;;;;;;12.40;6.45;;;16.40;96.70;;;;;;4930839;29;20105;-70
2022/10/29 00:57:36;;;;;;;12.35;6.55;;;16.40;96.70;;;;;;4948376;28;20058;-69
2022/10/29 01:00:04;;;;;;;12.18;6.03;;;16.50;96.70;;;;;;4909507;29;20146;-70
2022/10/29 01:02:33;;;;;;;10.48;6.28;;;16.50;96.70;;;;;;4931624;29;20062;-70
2022/10/29 01:05:03;;;;;;;12.93;6.75;;;16.40;96.70;;;;;;4963007;28;20051;-70
2022/10/29 01:07:31;;;;;;;9.20;6.78;;;16.50;96.70;;;;;;4924807;28;20047;-70
2022/10/29 01:09:59;;;;;;;13.10;6.18;;;16.50;96.70;;;;;;4932337;28;20180;-69
2022/10/29 01:12:53;;;;;;;11.93;6.15;;;16.50;96.70;;;;;;4956790;28;20039;-70
2022/10/29 01:15:31;;;;;;;12.25;5.80;;;16.60;96.70;;;;;;4959500;28;20055;-70
2022/10/29 01:18:08;;;;;;;11.98;6.20;;;16.60;96.70;;;;;;4939885;28;20065;-70
2022/10/29 01:21:13;;;;;;;11.30;5.97;;;16.50;96.70;;;;;;4932621;28;20039;-70
2022/10/29 01:24:34;;;;;;;10.00;6.07;;;16.50;96.70;;;;;;4948492;28;20079;-69
2022/10/29 01:27:38;;;;;;;9.15;5.65;;;16.40;96.70;;;;;;4947360;28;20051;-70
2022/10/29 01:30:15;;;;;;;9.30;5.97;;;16.50;96.70;;;;;;4940469;28;20051;-69
2022/10/29 01:32:57;;;;;;;14.23;6.68;;;16.50;96.70;;;;;;4952921;28;21489;-70
2022/10/29 01:35:31;;;;;;;13.35;6.15;;;16.40;96.70;;;;;;4931304;29;20060;-70
2022/10/29 01:38:10;;;;;;;8.25;5.55;;;16.50;96.70;;;;;;4931977;29;20043;-70
2022/10/29 01:40:47;;;;;;;12.90;6.13;;;16.50;96.70;;;;;;4950334;28;20060;-70
2022/10/29 01:43:23;;;;;;;9.48;5.95;;;16.40;96.70;;;;;;4955529;28;20170;-69
2022/10/29 01:45:55;;;;;;;11.07;6.05;;;16.30;96.70;;;;;;4930569;29;20058;-71
2022/10/29 01:48:30;;;;;;;12.73;6.38;;;16.30;96.70;;;;;;4953349;28;20070;-69
2022/10/29 01:51:05;;;;;;;11.52;6.93;;;16.40;96.70;;;;;;4968974;28;20035;-70
2022/10/29 01:53:36;;;;;;;9.63;5.78;;;16.30;96.70;;;;;;4960918;28;20086;-70
2022/10/29 01:56:04;;;;;;;10.23;5.38;;;16.20;96.70;;;;;;4939652;29;20532;-70
2022/10/29 01:58:34;;;;;;;11.95;5.45;;;16.30;96.70;;;;;;4955853;28;20090;-70
2022/10/29 02:01:10;;;;;;;10.40;5.20;;;16.20;96.70;;;;;;4950697;28;20136;-70
2022/10/29 02:03:51;;;;;;;9.13;5.75;;;16.10;96.70;;;;;;4969391;28;20043;-69
2022/10/29 02:06:26;;;;;;;8.23;5.68;;;16.10;96.70;;;;;;4949531;28;20051;-70
2022/10/29 02:09:03;;;;;;;8.73;5.65;;;16.10;96.70;;;;;;4945156;28;20081;-70
2022/10/29 02:11:40;;;;;;;8.68;5.65;;;16.10;96.70;;;;;;4946525;28;20587;-69
2022/10/29 02:14:13;;;;;;;11.60;5.63;;;16.10;96.70;;;;;;4932797;28;20047;-70
2022/10/29 02:16:42;;;;;;;8.80;5.40;;;16.10;96.70;;;;;;4946669;28;20588;-70
2022/10/29 02:19:11;;;;;;;12.48;5.80;;;16.10;96.70;;;;;;4947710;28;20047;-70
2022/10/29 02:21:39;;;;;;;8.80;5.95;;;16.10;96.70;;;;;;4943063;28;20062;-70
2022/10/29 02:24:07;;;;;;;9.27;5.50;;;16.00;96.70;;;;;;4933908;28;20129;-70
2022/10/29 02:26:35;;;;;;;11.45;5.75;;;16.00;96.70;;;;;;4929452;28;20039;-70
2022/10/29 02:29:03;;;;;;;10.07;5.53;;;15.90;96.70;;;;;;4947714;28;20039;-70
2022/10/29 02:31:30;;;;;;;11.38;6.05;;;15.70;96.70;;;;;;4946855;28;20090;-70
2022/10/29 02:33:58;;;;;;;13.10;6.15;;;15.70;96.70;;;;;;4955349;28;20043;-69
2022/10/29 02:36:27;;;;;;;13.23;6.22;;;15.70;96.70;;;;;;4962588;28;20299;-69
2022/10/29 02:38:55;;;;;;;11.85;6.45;;;15.60;96.70;;;;;;4954504;28;20082;-70
2022/10/29 02:41:23;;;;;;;14.02;6.43;;;15.50;96.70;;;;;;4941699;29;20059;-69
2022/10/29 02:43:50;;;;;;;9.82;6.07;;;15.50;96.70;;;;;;4950278;28;20493;-70
2022/10/29 02:46:19;;;;;;;12.05;5.40;;;15.40;96.70;;;;;;4945403;28;20047;-69
2022/10/29 02:48:47;;;;;;;11.57;5.55;;;15.30;96.70;;;;;;4951740;28;20034;-70
2022/10/29 02:51:16;;;;;;;9.35;5.63;;;15.30;96.70;;;;;;4960113;28;20039;-69
2022/10/29 02:53:46;;;;;;;8.73;5.43;;;15.30;96.70;;;;;;4936074;28;20047;-69
2022/10/29 02:56:14;;;;;;;9.55;5.68;;;15.30;96.70;;;;;;4945775;28;20051;-69
2022/10/29 02:58:41;;;;;;;12.82;6.00;;;15.30;96.70;;;;;;4930719;28;20055;-70
2022/10/29 03:01:09;;;;;;;7.05;5.20;;;15.30;96.70;;;;;;4959196;28;20058;-69
2022/10/29 03:03:37;;;;;;;8.15;5.00;;;15.30;96.70;;;;;;4942995;28;20043;-70
2022/10/29 03:06:11;;;;;;;6.00;4.80;;;15.30;96.70;;;;;;4928980;29;20094;-70
2022/10/29 03:08:39;;;;;;;9.80;5.28;;;15.30;96.70;;;;;;4933878;28;20042;-70
2022/10/29 03:11:09;;;;;;;10.82;5.63;;;15.30;96.70;;;;;;4928490;28;20110;-70
2022/10/29 03:13:37;;;;;;;7.30;4.85;;;15.40;96.70;;;;;;4958724;28;20414;-69
2022/10/29 03:16:10;;;;;;;8.10;5.03;;;15.40;96.70;;;;;;4939090;28;20121;-70
2022/10/29 03:18:37;;;;;;;8.70;5.38;;;15.20;96.70;;;;;;4959241;28;20057;-69
2022/10/29 03:21:05;;;;;;;9.07;5.13;;;15.20;96.70;;;;;;4945347;28;20482;-70
2022/10/29 03:23:33;;;;;;;13.27;5.72;;;15.30;96.70;;;;;;4929395;28;20120;-70
2022/10/29 03:26:01;;;;;;;7.05;5.10;;;15.30;96.70;;;;;;4944714;28;20050;-70
2022/10/29 03:28:31;;;;;;;5.45;4.57;;;15.40;96.70;;;;;;4932902;28;20142;-70
2022/10/29 03:30:59;;;;;;;9.35;5.03;;;15.40;96.70;;;;;;4930927;29;20082;-71
2022/10/29 03:33:27;;;;;;;8.88;5.32;;;15.40;96.70;;;;;;4953563;28;20498;-70
2022/10/29 03:35:56;;;;;;;9.15;5.20;;;15.30;96.70;;;;;;4955775;28;20070;-70
2022/10/29 03:38:24;;;;;;;9.95;5.63;;;15.50;96.70;;;;;;4929763;28;20043;-70
2022/10/29 03:40:52;;;;;;;10.25;5.22;;;15.40;96.70;;;;;;4928677;28;20062;-70
2022/10/29 03:43:20;;;;;;;7.60;4.32;;;15.30;96.70;;;;;;4946250;28;20039;-70
2022/10/29 03:45:55;;;;;;;7.07;4.75;;;15.20;96.70;;;;;;4946353;28;20134;-70
2022/10/29 03:48:24;;;;;;;7.68;4.85;;;15.30;96.70;;;;;;4945932;28;20055;-71
2022/10/29 03:50:56;;;;;;;7.03;4.40;;;15.30;96.70;;;;;;4955249;28;20481;-70
2022/10/29 03:53:24;;;;;;;6.80;4.22;;;15.40;96.70;;;;;;4939550;28;20458;-70
2022/10/29 03:55:53;;;;;;;6.53;4.65;;;15.40;96.70;;;;;;4953463;28;20134;-70
2022/10/29 03:58:22;;;;;;;6.55;4.30;;;15.40;96.70;;;;;;4947592;28;20039;-71
2022/10/29 04:00:55;;;;;;;7.75;4.82;;;15.30;96.70;;;;;;4932564;29;20039;-70
2022/10/29 04:03:24;;;;;;;6.25;4.68;;;15.20;96.70;;;;;;4954031;28;20078;-70
2022/10/29 04:05:52;;;;;;;7.53;4.55;;;15.30;96.70;;;;;;4927805;28;20050;-70
2022/10/29 04:08:20;;;;;;;7.47;4.35;;;15.20;96.70;;;;;;4930389;28;20484;-70
2022/10/29 04:10:49;;;;;;;5.38;4.20;;;15.10;96.70;;;;;;4940854;28;20047;-71
2022/10/29 04:13:18;;;;;;;7.00;4.68;;;15.10;96.70;;;;;;4936463;29;20055;-71
2022/10/29 04:15:46;;;;;;;8.90;4.68;;;15.10;96.70;;;;;;4945140;28;20109;-70
2022/10/29 04:18:15;;;;;;;8.77;5.15;;;15.10;96.70;;;;;;4955002;28;20055;-70
2022/10/29 04:20:43;;;;;;;10.43;4.82;;;15.10;96.70;;;;;;4945801;28;20494;-70
2022/10/29 04:23:31;;;;;;;6.47;4.30;;;15.00;96.70;;;;;;4945059;28;20056;-70
2022/10/29 04:26:19;;;;;;;6.70;4.75;;;15.00;96.70;;;;;;4930926;28;20050;-71
2022/10/29 04:29:07;;;;;;;7.15;4.20;;;14.80;96.70;;;;;;4933314;28;20047;-71
2022/10/29 04:31:35;;;;;;;5.63;4.32;;;14.70;96.70;;;;;;4962384;28;20103;-71
2022/10/29 04:34:05;;;;;;;8.05;4.65;;;14.70;96.70;;;;;;4944954;28;20055;-71
2022/10/29 04:36:33;;;;;;;6.00;4.60;;;14.70;96.70;;;;;;4945026;28;20498;-70
2022/10/29 04:39:01;;;;;;;5.78;4.63;;;14.80;96.70;;;;;;4927897;29;20063;-70
2022/10/29 04:41:28;;;;;;;9.40;4.97;;;14.80;96.70;;;;;;4945035;28;20047;-71
2022/10/29 04:43:57;;;;;;;8.05;5.18;;;14.80;96.70;;;;;;4927486;29;20048;-71
2022/10/29 04:46:24;;;;;;;8.32;4.88;;;14.70;96.70;;;;;;4960672;28;20039;-70
2022/10/29 04:48:53;;;;;;;10.30;4.95;;;14.70;96.70;;;;;;4930975;28;20146;-70
2022/10/29 04:51:23;;;;;;;11.63;5.07;;;14.60;96.70;;;;;;4960222;28;20119;-70
2022/10/29 04:53:51;;;;;;;7.15;5.00;;;14.40;96.70;;;;;;4952772;28;20126;-71
2022/10/29 04:56:19;;;;;;;9.48;5.05;;;14.40;96.70;;;;;;4945266;28;20508;-71
2022/10/29 04:58:51;;;;;;;8.43;4.68;;;14.30;96.70;;;;;;4954531;28;20075;-70
2022/10/29 05:01:18;;;;;;;8.00;4.55;;;14.40;96.70;;;;;;4941017;28;20494;-70
2022/10/29 05:03:47;;;;;;;8.10;4.80;;;14.40;96.70;;;;;;4928327;28;20039;-71
2022/10/29 05:06:14;;;;;;;7.20;4.80;;;14.40;96.70;;;;;;4932044;29;20051;-71
2022/10/29 05:08:44;;;;;;;7.38;5.07;;;14.50;96.70;;;;;;4934718;28;20505;-71
2022/10/29 05:11:12;;;;;;;7.43;4.78;;;14.50;96.70;;;;;;4946296;28;20130;-71
2022/10/29 05:13:40;;;;;;;7.50;4.45;;;14.60;96.70;;;;;;4927641;28;20470;-71
2022/10/29 05:16:08;;;;;;;6.18;4.45;;;14.60;96.70;;;;;;4911676;28;20047;-71
2022/10/29 05:18:37;;;;;;;8.20;4.70;;;14.60;96.70;;;;;;4930630;29;20593;-70
2022/10/29 05:21:05;;;;;;;9.75;5.05;;;14.60;96.70;;;;;;4930860;29;20079;-70
2022/10/29 05:23:33;;;;;;;6.65;4.80;;;14.60;96.70;;;;;;4918289;29;20784;-70
2022/10/29 05:26:03;;;;;;;8.95;5.07;;;14.50;96.70;;;;;;4947021;28;20046;-70
2022/10/29 05:28:30;;;;;;;7.53;4.78;;;14.50;96.70;;;;;;4948225;28;20050;-70
2022/10/29 05:31:02;;;;;;;9.07;5.15;;;14.50;96.70;;;;;;4953658;28;20070;-71
2022/10/29 05:33:30;;;;;;;8.32;4.60;;;14.50;96.70;;;;;;4964475;28;20109;-71
2022/10/29 05:36:00;;;;;;;8.23;4.57;;;14.40;96.70;;;;;;4958537;28;20043;-70
2022/10/29 05:38:28;;;;;;;7.95;5.07;;;14.40;96.70;;;;;;4925479;28;20053;-70
2022/10/29 05:40:57;;;;;;;10.90;5.15;;;14.30;96.70;;;;;;4932535;29;20454;-70
2022/10/29 05:43:27;;;;;;;9.82;5.15;;;14.40;96.70;;;;;;4938473;29;20154;-70
2022/10/29 05:45:54;;;;;;;7.72;4.55;;;14.40;96.70;;;;;;4929457;29;20138;-70
2022/10/29 05:48:22;;;;;;;8.90;4.68;;;14.50;96.70;;;;;;4934188;29;20695;-71
2022/10/29 05:50:50;;;;;;;5.80;4.35;;;14.50;96.70;;;;;;4935343;29;20047;-71
2022/10/29 05:53:18;;;;;;;8.05;4.85;;;14.60;96.70;;;;;;4937294;29;20043;-71
2022/10/29 05:55:46;;;;;;;6.90;4.82;;;14.50;96.70;;;;;;4937818;29;20130;-70
2022/10/29 05:58:14;;;;;;;6.22;4.40;;;14.50;96.70;;;;;;4936646;29;20062;-71
2022/10/29 06:00:44;;;;;;;7.43;4.68;;;14.60;96.70;;;;;;4928206;29;20051;-71
2022/10/29 06:03:13;;;;;;;6.70;4.18;;;14.60;96.70;;;;;;4928452;29;20067;-71
2022/10/29 06:05:42;;;;;;;8.35;4.78;;;14.60;96.70;;;;;;4931689;29;20457;-71
2022/10/29 06:08:15;;;;;;;9.40;4.88;;;14.60;96.70;;;;;;4913244;29;20047;-71
2022/10/29 06:10:43;;;;;;;5.32;4.45;;;14.60;96.70;;;;;;4935502;29;20553;-71
2022/10/29 06:13:12;;;;;;;11.25;5.32;;;14.60;96.70;;;;;;4968034;28;20399;-72
2022/10/29 06:15:41;;;;;;;5.18;4.18;;;14.40;96.70;;;;;;4931227;28;20048;-71
2022/10/29 06:18:10;;;;;;;8.85;4.57;;;14.30;96.70;;;;;;4912475;29;20059;-71
2022/10/29 06:20:38;;;;;;;6.75;4.28;;;14.30;96.70;;;;;;4928883;29;20131;-73
2022/10/29 06:23:06;;;;;;;6.28;4.03;;;14.30;96.70;;;;;;4929281;29;20054;-72
2022/10/29 06:25:34;;;;;;;8.23;4.22;;;14.30;96.70;;;;;;4931399;29;20047;-72
2022/10/29 06:28:04;;;;;;;6.43;4.38;;;14.30;96.70;;;;;;4934643;29;20451;-72
2022/10/29 06:30:33;;;;;;;7.88;5.00;;;14.40;96.70;;;;;;4941367;29;20407;-72
2022/10/29 06:33:03;;;;;;;5.05;4.55;;;14.40;96.70;;;;;;4937147;29;20047;-71
2022/10/29 06:35:31;;;;;;;9.05;4.82;;;14.30;96.70;;;;;;4926989;29;20103;-71
2022/10/29 06:38:04;;;;;;;7.35;4.13;;;14.30;96.70;;;;;;4926518;29;20495;-73
2022/10/29 06:40:38;;;;;;;6.70;4.05;;;14.40;96.70;;;;;;4935686;29;20506;-72
2022/10/29 06:43:09;;;;;;;7.30;3.90;;;14.40;96.70;;;;;;4932428;29;20091;-73
2022/10/29 06:45:37;;;;;;;7.10;3.90;;;14.40;96.70;;;;;;4924972;29;20055;-73
2022/10/29 06:48:08;;;;;;;6.30;4.03;;;14.50;96.70;;;;;;4925793;29;20095;-74
2022/10/29 06:50:35;;;;;;;6.53;3.72;;;14.50;96.70;;;;;;4927294;29;20067;-73
2022/10/29 06:53:04;;;;;;;6.40;4.55;;;14.60;96.70;;;;;;4927054;29;20040;-73
2022/10/29 06:55:34;;;;;;;8.13;4.03;;;14.60;96.70;;;;;;4921077;29;20051;-73
2022/10/29 06:58:04;;;;;;;6.45;4.28;;;14.70;96.70;;;;;;4932870;29;20039;-73
2022/10/29 07:00:33;;;;;;;10.82;5.05;;;14.70;96.70;;;;;;4926222;29;20047;-73
2022/10/29 07:03:03;;;;;;;12.30;5.30;;;14.60;96.70;;;;;;4927816;29;20135;-74
2022/10/29 07:05:34;;;;;;;13.02;6.07;;;14.70;96.70;;;;;;4940376;29;20062;-73
2022/10/29 07:08:02;;;;;;;13.52;6.38;;;14.90;96.70;;;;;;4933886;29;20513;-73
2022/10/29 07:10:31;;;;;;;12.70;6.47;;;15.00;96.70;;;;;;4926797;29;20054;-73
2022/10/29 07:12:59;;;;;;;13.98;5.82;;;15.00;96.70;;;;;;4930986;29;20039;-73
2022/10/29 07:15:28;;;;;;;11.00;5.43;;;15.10;96.70;;;;;;4927244;29;20059;-73
2022/10/29 07:17:58;;;;;;;7.60;5.50;;;15.10;96.70;;;;;;4926158;29;20768;-73
2022/10/29 07:20:27;;;;;;;8.60;6.22;;;15.10;96.70;;;;;;4927354;29;20071;-73
2022/10/29 07:22:58;;;;;;;8.77;5.22;;;15.20;96.70;;;;;;4926417;29;20091;-75
2022/10/29 07:25:26;;;;;;;8.02;5.13;;;15.30;96.70;;;;;;4940909;29;20047;-73
2022/10/29 07:27:54;;;;;;;9.23;5.50;;;15.30;96.70;;;;;;4919485;29;20067;-73
2022/10/29 07:30:23;;;;;;;8.13;5.55;;;15.50;96.70;;;;;;4929507;29;20110;-74
2022/10/29 07:32:51;;;;;;;9.90;5.75;;;15.50;96.70;;;;;;4923784;29;20095;-73
2022/10/29 07:35:19;;;;;;;8.30;6.00;;;15.50;96.70;;;;;;4924223;29;20055;-73
2022/10/29 07:37:46;;;;;;;8.32;5.47;;;15.50;96.70;;;;;;4927461;29;20071;-73
2022/10/29 07:40:16;;;;;;;9.65;6.10;;;15.50;96.70;;;;;;4967271;28;20486;-74
2022/10/29 07:42:44;;;;;;;9.32;7.05;;;15.50;96.70;;;;;;4932878;29;20063;-73
2022/10/29 07:45:12;;;;;;;22.17;13.90;;;15.60;96.70;;;;;;4964708;28;20051;-73
2022/10/29 07:47:41;;;;;;;39.70;24.90;;;15.60;96.70;;;;;;4926433;29;20141;-74
2022/10/29 07:50:10;;;;;;;52.83;30.42;;;15.70;96.70;;;;;;4927871;29;20609;-73
2022/10/29 07:52:38;;;;;;;52.22;29.75;;;15.80;96.70;;;;;;4926472;29;20071;-73
2022/10/29 07:55:07;;;;;;;36.92;23.65;;;15.90;96.70;;;;;;4944405;28;20146;-73
2022/10/29 07:57:36;;;;;;;52.60;30.92;;;16.10;96.70;;;;;;4911414;29;20418;-73
2022/10/29 08:00:05;;;;;;;77.05;47.17;;;16.10;96.70;;;;;;4928006;29;20047;-74
2022/10/29 08:02:38;;;;;;;79.40;49.17;;;16.10;96.70;;;;;;4926825;29;20059;-74
2022/10/29 08:05:07;;;;;;;78.38;50.13;;;16.20;96.70;;;;;;4942128;28;20312;-74
2022/10/29 08:07:35;;;;;;;74.68;49.97;;;16.30;96.70;;;;;;4925901;29;20048;-73
2022/10/29 08:10:03;;;;;;;61.45;40.15;;;16.40;96.70;;;;;;4929206;29;20051;-73
2022/10/29 08:12:31;;;;;;;60.22;38.80;;;16.40;96.70;;;;;;4926917;29;20050;-72
2022/10/29 08:15:00;;;;;;;54.30;36.55;;;16.50;96.70;;;;;;4913054;29;20469;-72
2022/10/29 08:17:28;;;;;;;46.55;31.27;;;16.60;96.70;;;;;;4916224;29;20407;-73
2022/10/29 08:19:56;;;;;;;41.92;28.98;;;16.70;96.70;;;;;;4929231;29;20369;-73
2022/10/29 08:22:24;;;;;;;38.10;23.33;;;16.70;96.70;;;;;;4939530;29;20075;-73
2022/10/29 08:24:51;;;;;;;27.45;17.02;;;16.80;96.70;;;;;;4926221;29;20047;-73
2022/10/29 08:27:19;;;;;;;24.30;15.70;;;17.00;96.70;;;;;;4925294;29;20040;-73
2022/10/29 08:29:46;;;;;;;22.55;15.63;;;17.00;96.70;;;;;;4930196;29;20078;-73
2022/10/29 08:32:16;;;;;;;15.73;10.80;;;17.10;96.70;;;;;;4942843;29;20050;-74
2022/10/29 08:34:43;;;;;;;18.08;10.23;;;17.20;96.70;;;;;;4938541;29;20058;-73
2022/10/29 08:37:11;;;;;;;15.02;9.18;;;17.20;96.70;;;;;;4970164;28;20077;-74
2022/10/29 08:39:39;;;;;;;12.60;8.07;;;17.20;96.70;;;;;;4935786;29;20074;-74
2022/10/29 08:42:22;;;;;;;12.73;8.68;;;17.30;96.70;;;;;;4958793;28;20089;-74
2022/10/29 08:45:15;;;;;;;14.65;8.93;;;17.40;96.70;;;;;;4945672;28;20039;-73
2022/10/29 08:48:01;;;;;;;15.27;9.43;;;17.50;96.70;;;;;;4931496;28;20044;-74
2022/10/29 08:50:32;;;;;;;19.27;9.90;;;17.50;96.70;;;;;;4957589;28;20417;-74
2022/10/29 08:53:01;;;;;;;19.92;9.63;;;17.70;96.70;;;;;;4942814;28;20063;-73
2022/10/29 08:55:50;;;;;;;18.50;9.75;;;17.80;96.70;;;;;;4934228;28;20047;-73
2022/10/29 08:58:32;;;;;;;15.65;8.43;;;17.80;96.70;;;;;;4920271;28;20453;-74
2022/10/29 09:01:00;;;;;;;14.43;8.43;;;17.90;96.70;;;;;;4963197;28;20050;-73
2022/10/29 09:03:29;;;;;;;12.02;7.07;;;18.10;96.70;;;;;;4958547;28;20501;-74
2022/10/29 09:06:07;;;;;;;11.15;6.28;;;18.30;96.70;;;;;;4946490;29;20051;-73
2022/10/29 09:08:46;;;;;;;9.50;5.97;;;18.40;96.70;;;;;;4949365;28;20054;-73
2022/10/29 09:11:26;;;;;;;11.18;5.97;;;18.50;96.70;;;;;;4911485;28;20057;-73
2022/10/29 09:14:27;;;;;;;10.75;5.50;;;18.70;96.70;;;;;;4952726;28;20050;-74
2022/10/29 09:17:01;;;;;;;10.40;6.85;;;18.80;96.70;;;;;;4953680;28;20051;-73
2022/10/29 09:19:50;;;;;;;11.73;6.32;;;18.80;96.70;;;;;;4955226;28;20481;-74
2022/10/29 09:22:26;;;;;;;12.80;7.93;;;18.90;96.70;;;;;;4930179;28;20086;-73
2022/10/29 09:25:03;;;;;;;18.27;8.68;;;18.90;96.70;;;;;;4942103;28;20061;-73
2022/10/29 09:27:43;;;;;;;11.25;7.13;;;19.00;96.70;;;;;;4950695;28;20043;-73
2022/10/29 09:30:14;;;;;;;13.88;8.65;;;19.10;96.70;;;;;;4929918;28;20099;-73
2022/10/29 09:32:48;;;;;;;14.10;7.72;;;19.10;96.70;;;;;;4917321;28;20063;-73
2022/10/29 09:35:21;;;;;;;13.13;6.90;;;19.30;96.70;;;;;;4944628;28;20054;-74
2022/10/29 09:37:52;;;;;;;15.15;7.35;;;19.30;96.70;;;;;;4959637;28;20446;-73
2022/10/29 09:40:30;;;;;;;15.48;10.48;;;19.40;96.70;;;;;;4938517;28;20094;-73
2022/10/29 09:42:59;;;;;;;18.13;10.90;;;19.60;96.70;;;;;;4943819;28;20485;-73
2022/10/29 09:45:39;;;;;;;13.63;8.40;;;19.80;96.70;;;;;;4930499;29;20047;-73
2022/10/29 09:48:13;;;;;;;12.45;7.35;;;19.90;96.70;;;;;;4948196;28;20047;-74
2022/10/29 09:50:53;;;;;;;12.00;6.18;;;19.90;96.70;;;;;;4947729;28;20047;-73
2022/10/29 09:53:20;;;;;;;17.88;10.15;;;20.10;96.70;;;;;;4925673;29;20089;-73
2022/10/29 09:55:52;;;;;;;16.80;8.52;;;20.30;96.70;;;;;;4947551;28;20168;-73
2022/10/29 09:58:23;;;;;;;10.20;5.90;;;20.30;96.70;;;;;;4931218;29;20051;-73
2022/10/29 10:00:52;;;;;;;12.40;6.78;;;20.40;96.70;;;;;;4966849;28;20078;-73
2022/10/29 10:03:25;;;;;;;20.25;7.22;;;20.40;96.70;;;;;;4947006;28;20043;-73
2022/10/29 10:06:00;;;;;;;13.05;6.07;;;20.50;96.70;;;;;;4954254;28;20555;-73
2022/10/29 10:08:29;;;;;;;8.55;4.72;;;20.60;96.70;;;;;;4944911;29;20047;-73
2022/10/29 10:11:05;;;;;;;11.60;6.65;;;20.70;96.70;;;;;;4952938;28;20039;-73
2022/10/29 10:13:34;;;;;;;;;;;20.80;96.70;;;;;;4936722;28;20417;-73
2022/10/29 10:16:04;;;;;;;13.77;6.75;;;20.90;96.70;;;;;;4947828;28;19926;-73
2022/10/29 10:18:40;;;;;;;9.60;5.35;;;21.00;96.70;;;;;;4947729;28;20051;-73
2022/10/29 10:21:11;;;;;;;6.70;3.45;;;21.10;96.70;;;;;;4959170;28;20050;-73
2022/10/29 10:23:44;;;;;;;8.15;3.72;;;21.20;96.70;;;;;;4939486;28;20401;-73
2022/10/29 10:26:28;;;;;;;8.02;4.55;;;21.40;96.70;;;;;;4951181;28;20047;-73
2022/10/29 10:29:12;;;;;;;11.70;4.85;;;21.40;96.70;;;;;;4947961;28;20523;-74
2022/10/29 10:31:42;;;;;;;7.75;4.07;;;21.40;96.70;;;;;;4928507;28;20134;-73
2022/10/29 10:34:18;;;;;;;7.68;4.13;;;21.50;96.70;;;;;;4951649;28;20710;-73
2022/10/29 10:36:50;;;;;;;7.15;3.92;;;21.60;96.70;;;;;;4941843;29;20051;-73
2022/10/29 10:39:27;;;;;;;11.93;4.45;;;21.70;96.70;;;;;;4964949;28;20563;-73
2022/10/29 10:41:58;;;;;;;7.05;3.60;;;21.70;96.70;;;;;;4963412;28;20146;-73
2022/10/29 10:44:27;;;;;;;7.80;3.47;;;21.80;96.70;;;;;;4959239;28;20505;-73
2022/10/29 10:46:58;;;;;;;6.13;3.40;;;22.00;96.70;;;;;;4944035;29;20130;-74
2022/10/29 10:49:31;;;;;;;6.40;3.58;;;22.10;96.70;;;;;;4930812;29;20051;-74
2022/10/29 10:52:04;;;;;;;5.95;3.25;;;22.10;96.70;;;;;;4913202;28;20051;-73
2022/10/29 10:54:35;;;;;;;6.45;3.50;;;22.20;96.70;;;;;;4947942;28;20082;-73
2022/10/29 10:57:18;;;;;;;5.60;3.20;;;22.30;96.70;;;;;;4928920;29;20686;-73
2022/10/29 10:59:54;;;;;;;8.57;3.50;;;22.30;96.70;;;;;;4946039;28;20043;-75
2022/10/29 11:02:25;;;;;;;;;;;22.30;96.70;;;;;;4929167;28;20161;-74
2022/10/29 11:04:58;;;;;;;6.43;3.10;;;22.30;96.70;;;;;;4961768;28;19964;-74
2022/10/29 11:07:38;;;;;;;4.68;2.70;;;22.40;96.70;;;;;;4952738;28;20051;-74
2022/10/29 11:10:10;;;;;;;6.85;3.25;;;22.60;96.70;;;;;;4958642;28;20047;-73
2022/10/29 11:12:43;;;;;;;6.15;2.97;;;22.80;96.70;;;;;;4958521;28;20488;-74
2022/10/29 11:15:16;;;;;;;7.60;3.50;;;22.80;96.70;;;;;;4929699;29;20070;-74
2022/10/29 11:17:49;;;;;;;6.28;3.10;;;22.80;96.70;;;;;;4912880;29;20047;-74
2022/10/29 11:20:25;;;;;;;9.70;3.80;;;22.80;96.70;;;;;;4921550;28;20047;-74
2022/10/29 11:23:03;;;;;;;4.43;2.80;;;23.00;96.70;;;;;;4936662;29;20130;-74
2022/10/29 11:25:38;;;;;;;5.50;3.05;;;23.10;96.70;;;;;;4946122;28;20130;-74
2022/10/29 11:28:18;;;;;;;7.60;3.13;;;23.20;96.70;;;;;;4929322;28;20437;-73
2022/10/29 11:31:09;;;;;;;6.32;3.10;;;23.30;96.70;;;;;;4928385;29;20581;-75
2022/10/29 11:33:45;;;;;;;5.53;3.00;;;23.50;96.70;;;;;;4953293;28;20434;-73
2022/10/29 11:36:19;;;;;;;8.07;3.08;;;23.50;96.70;;;;;;4938064;28;20050;-74
2022/10/29 11:38:52;;;;;;;5.60;3.13;;;23.60;96.70;;;;;;4927221;29;20070;-74
2022/10/29 11:41:31;;;;;;;4.93;3.40;;;23.80;96.70;;;;;;4945047;28;20055;-74
2022/10/29 11:43:59;;;;;;;6.50;2.80;;;23.80;96.70;;;;;;4945266;28;20051;-74
2022/10/29 11:46:38;;;;;;;7.22;3.08;;;23.90;96.70;;;;;;4926680;28;20531;-73
2022/10/29 11:49:20;;;;;;;6.05;2.60;;;24.10;96.70;;;;;;4928383;28;20387;-73
2022/10/29 11:51:59;;;;;;;5.35;2.90;;;24.30;96.70;;;;;;4928823;29;20054;-73
2022/10/29 11:54:41;;;;;;;5.30;3.05;;;24.40;96.70;;;;;;4944681;28;20049;-73
2022/10/29 11:57:16;;;;;;;3.47;2.53;;;24.50;96.70;;;;;;4929126;29;20043;-74
2022/10/29 12:00:03;;;;;;;8.02;2.80;;;24.60;96.70;;;;;;4929888;29;20054;-74
2022/10/29 12:03:12;;;;;;;5.68;3.00;;;24.70;96.70;;;;;;4943604;28;20073;-74
2022/10/29 12:05:45;;;;;;;5.75;2.58;;;24.70;96.70;;;;;;4948685;28;20058;-74
2022/10/29 12:08:34;;;;;;;5.55;2.90;;;24.80;96.70;;;;;;4923829;28;20090;-73
2022/10/29 12:11:11;;;;;;;4.50;2.35;;;25.00;96.70;;;;;;4945258;28;20055;-75
2022/10/29 12:13:49;;;;;;;4.32;2.30;;;25.00;96.70;;;;;;4922983;28;20062;-74
2022/10/29 12:16:36;;;;;;;7.70;1.98;;;25.00;96.70;;;;;;4928557;29;20077;-75
2022/10/29 12:19:14;;;;;;;7.32;2.60;;;25.20;96.70;;;;;;4944397;28;20055;-74
2022/10/29 12:21:51;;;;;;;6.57;2.45;;;25.40;96.70;;;;;;4962416;28;20507;-74
2022/10/29 12:24:32;;;;;;;2.92;1.90;;;25.50;96.70;;;;;;4938706;28;20053;-74
2022/10/29 12:27:08;;;;;;;4.78;2.13;;;25.50;96.70;;;;;;4957831;28;20082;-74
2022/10/29 12:29:46;;;;;;;8.10;2.60;;;25.60;96.70;;;;;;4929341;28;20510;-74
2022/10/29 12:32:30;;;;;;;3.38;2.05;;;25.80;96.70;;;;;;4931733;29;20071;-73
2022/10/29 12:35:05;;;;;;;6.68;2.00;;;25.90;96.70;;;;;;4957458;28;20047;-73
2022/10/29 12:37:41;;;;;;;5.00;2.63;;;25.90;96.70;;;;;;4946108;28;20055;-73
2022/10/29 12:40:17;;;;;;;5.55;2.13;;;25.90;96.70;;;;;;4943895;28;20377;-74
2022/10/29 12:42:48;;;;;;;4.50;2.47;;;26.10;96.70;;;;;;4960362;28;20449;-74
2022/10/29 12:45:34;;;;;;;3.60;2.08;;;26.20;96.70;;;;;;4944201;28;20058;-73
2022/10/29 12:48:22;;;;;;;4.93;2.20;;;26.30;96.70;;;;;;4962117;28;20056;-73
2022/10/29 12:51:00;;;;;;;5.07;1.75;;;26.20;96.70;;;;;;4931349;28;20067;-74
2022/10/29 12:53:34;;;;;;;5.80;2.28;;;26.10;96.70;;;;;;4945183;28;20103;-72
2022/10/29 12:56:06;;;;;;;4.85;2.28;;;26.10;96.70;;;;;;4927451;29;20051;-72
2022/10/29 12:58:51;;;;;;;6.07;2.63;;;26.10;96.70;;;;;;4936599;28;20061;-72
2022/10/29 13:01:45;;;;;;;4.63;3.10;;;26.20;96.70;;;;;;4957086;28;20912;-73
2022/10/29 13:04:34;;;;;;;4.38;2.00;;;26.30;96.70;;;;;;4963192;28;20078;-75
2022/10/29 13:07:04;;;;;;;3.88;2.50;;;26.30;96.70;;;;;;4943139;28;20512;-74
2022/10/29 13:09:36;;;;;;;7.25;2.90;;;26.30;96.70;;;;;;4948768;28;20051;-75